createdAt,value
2022-08-21T00:02:04.700Z,19.50
2022-08-21T00:04:31.685Z,19.50
2022-08-21T00:06:59.727Z,19.40
2022-08-21T00:09:26.873Z,19.30
2022-08-21T00:11:53.721Z,19.30
2022-08-21T00:14:20.866Z,19.30
2022-08-21T00:16:47.708Z,19.30
2022-08-21T00:19:14.686Z,19.30
2022-08-21T00:21:44.302Z,19.30
2022-08-21T00:24:12.251Z,19.30
2022-08-21T00:26:39.184Z,19.30
2022-08-21T00:29:06.401Z,19.30
2022-08-21T00:31:33.266Z,19.30
2022-08-21T00:34:01.546Z,19.30
2022-08-21T00:36:29.719Z,19.40
2022-08-21T00:38:57.602Z,19.40
2022-08-21T00:41:36.882Z,19.30
2022-08-21T00:46:58.976Z,19.30
2022-08-21T00:49:26.019Z,19.30
2022-08-21T00:51:56.546Z,19.20
2022-08-21T00:54:26.583Z,19.20
2022-08-21T00:57:00.725Z,19.20
2022-08-21T00:59:31.718Z,19.20
2022-08-21T01:01:58.765Z,19.20
2022-08-21T01:04:25.711Z,19.20
2022-08-21T01:06:53.574Z,19.10
2022-08-21T01:09:21.057Z,19.10
2022-08-21T01:11:48.408Z,19.10
2022-08-21T01:14:16.256Z,19.10
2022-08-21T01:16:46.683Z,19.00
2022-08-21T01:19:15.569Z,19.00
2022-08-21T01:21:43.881Z,18.90
2022-08-21T01:24:11.914Z,18.90
2022-08-21T01:26:38.755Z,18.90
2022-08-21T01:29:12.846Z,18.80
2022-08-21T01:31:40.186Z,18.80
2022-08-21T01:34:07.784Z,18.80
2022-08-21T01:36:35.236Z,18.70
2022-08-21T01:39:04.203Z,18.70
2022-08-21T01:41:31.184Z,18.60
2022-08-21T01:43:57.881Z,18.50
2022-08-21T01:46:24.523Z,18.50
2022-08-21T01:48:51.435Z,18.40
2022-08-21T01:51:18.377Z,18.40
2022-08-21T01:53:45.113Z,18.30
2022-08-21T01:56:14.559Z,18.30
2022-08-21T01:58:43.147Z,18.20
2022-08-21T02:01:10.437Z,18.20
2022-08-21T02:03:37.723Z,18.10
2022-08-21T02:06:06.143Z,18.00
2022-08-21T02:08:39.567Z,17.90
2022-08-21T02:11:06.472Z,17.90
2022-08-21T02:13:33.097Z,17.80
2022-08-21T02:15:59.742Z,17.80
2022-08-21T02:18:26.491Z,17.80
2022-08-21T02:20:55.829Z,17.70
2022-08-21T02:23:27.391Z,17.60
2022-08-21T02:26:06.178Z,17.60
2022-08-21T02:28:33.391Z,17.60
2022-08-21T02:31:00.801Z,17.60
2022-08-21T02:33:28.780Z,17.50
2022-08-21T02:35:58.058Z,17.50
2022-08-21T02:38:28.384Z,17.40
2022-08-21T02:40:56.951Z,17.40
2022-08-21T02:43:25.650Z,17.40
2022-08-21T02:45:53.301Z,17.30
2022-08-21T02:48:24.423Z,17.20
2022-08-21T02:51:05.130Z,17.20
2022-08-21T02:53:32.466Z,17.20
2022-08-21T02:56:02.110Z,17.10
2022-08-21T02:58:33.084Z,17.10
2022-08-21T03:01:00.055Z,17.00
2022-08-21T03:03:29.169Z,17.00
2022-08-21T03:05:56.306Z,17.00
2022-08-21T03:08:24.270Z,16.90
2022-08-21T03:10:55.124Z,16.90
2022-08-21T03:13:22.026Z,16.80
2022-08-21T03:15:50.130Z,16.80
2022-08-21T03:18:17.922Z,16.70
2022-08-21T03:20:46.186Z,16.70
2022-08-21T03:23:14.294Z,16.60
2022-08-21T03:25:44.062Z,16.70
2022-08-21T03:28:14.042Z,16.70
2022-08-21T03:30:46.212Z,16.70
2022-08-21T03:33:15.402Z,16.70
2022-08-21T03:35:48.043Z,16.70
2022-08-21T03:38:15.079Z,16.70
2022-08-21T03:40:43.977Z,16.70
2022-08-21T03:43:10.933Z,16.70
2022-08-21T03:45:38.779Z,16.70
2022-08-21T03:48:06.633Z,16.70
2022-08-21T03:50:40.824Z,16.60
2022-08-21T03:53:17.522Z,16.60
2022-08-21T03:55:46.768Z,16.50
2022-08-21T03:58:16.244Z,16.50
2022-08-21T04:00:45.101Z,16.40
2022-08-21T04:03:11.869Z,16.40
2022-08-21T04:05:38.500Z,16.40
2022-08-21T04:08:06.487Z,16.40
2022-08-21T04:10:35.986Z,16.40
2022-08-21T04:13:03.510Z,16.40
2022-08-21T04:15:30.250Z,16.30
2022-08-21T04:17:56.956Z,16.30
2022-08-21T04:20:24.476Z,16.30
2022-08-21T04:22:51.928Z,16.30
2022-08-21T04:25:21.648Z,16.20
2022-08-21T04:27:48.727Z,16.30
2022-08-21T04:30:16.732Z,16.30
2022-08-21T04:32:45.482Z,16.30
2022-08-21T04:35:13.416Z,16.30
2022-08-21T04:37:42.170Z,16.30
2022-08-21T04:40:13.165Z,16.30
2022-08-21T04:42:52.612Z,16.20
2022-08-21T04:45:22.106Z,16.20
2022-08-21T04:47:57.508Z,16.20
2022-08-21T04:50:32.584Z,16.20
2022-08-21T04:53:00.710Z,16.20
2022-08-21T04:55:28.833Z,16.20
2022-08-21T04:57:56.872Z,16.20
2022-08-21T05:00:25.571Z,16.30
2022-08-21T05:02:57.361Z,16.30
2022-08-21T05:05:24.875Z,16.30
2022-08-21T05:07:53.005Z,16.30
2022-08-21T05:10:19.758Z,16.40
2022-08-21T05:12:46.769Z,16.30
2022-08-21T05:15:14.232Z,16.40
2022-08-21T05:17:43.727Z,16.40
2022-08-21T05:20:20.704Z,16.40
2022-08-21T05:22:47.550Z,16.50
2022-08-21T05:25:14.281Z,16.50
2022-08-21T05:27:41.244Z,16.60
2022-08-21T05:30:10.652Z,16.60
2022-08-21T05:32:37.682Z,16.70
2022-08-21T05:35:08.868Z,16.70
2022-08-21T05:37:35.786Z,16.70
2022-08-21T05:40:21.065Z,16.80
2022-08-21T05:42:56.720Z,16.90
2022-08-21T05:45:43.396Z,16.80
2022-08-21T05:48:24.696Z,16.90
2022-08-21T05:50:52.750Z,17.10
2022-08-21T05:53:21.593Z,17.10
2022-08-21T05:55:49.128Z,17.30
2022-08-21T05:58:18.708Z,17.40
2022-08-21T06:00:48.118Z,17.50
2022-08-21T06:03:18.611Z,17.50
2022-08-21T06:05:46.503Z,17.50
2022-08-21T06:08:14.074Z,17.50
2022-08-21T06:10:41.341Z,17.60
2022-08-21T06:13:08.057Z,17.70
2022-08-21T06:15:35.014Z,17.70
2022-08-21T06:18:01.757Z,17.80
2022-08-21T06:20:28.877Z,17.80
2022-08-21T06:22:55.711Z,17.80
2022-08-21T06:25:22.423Z,17.80
2022-08-21T06:27:50.342Z,17.80
2022-08-21T06:30:17.206Z,17.80
2022-08-21T06:32:44.061Z,17.90
2022-08-21T06:35:10.985Z,18.00
2022-08-21T06:37:37.838Z,18.00
2022-08-21T06:40:12.639Z,18.10
2022-08-21T06:42:41.356Z,18.10
2022-08-21T06:45:10.418Z,18.20
2022-08-21T06:47:37.273Z,18.20
2022-08-21T06:50:04.658Z,18.30
2022-08-21T06:52:31.356Z,18.30
2022-08-21T06:54:58.003Z,18.30
2022-08-21T06:57:26.207Z,18.30
2022-08-21T06:59:52.876Z,18.30
2022-08-21T07:02:19.557Z,18.40
2022-08-21T07:04:46.170Z,18.50
2022-08-21T07:07:13.008Z,18.50
2022-08-21T07:09:40.432Z,18.50
2022-08-21T07:12:07.461Z,18.60
2022-08-21T07:14:34.131Z,18.60
2022-08-21T07:17:01.629Z,18.50
2022-08-21T07:19:28.422Z,18.60
2022-08-21T07:22:00.982Z,18.60
2022-08-21T07:24:27.806Z,18.70
2022-08-21T07:26:54.876Z,18.80
2022-08-21T07:29:21.612Z,18.80
2022-08-21T07:31:48.321Z,19.00
2022-08-21T07:34:15.536Z,19.10
2022-08-21T07:36:42.242Z,19.20
2022-08-21T07:39:09.092Z,19.30
2022-08-21T07:41:36.332Z,19.40
2022-08-21T07:44:04.038Z,19.60
2022-08-21T07:46:33.396Z,19.60
2022-08-21T07:49:00.144Z,19.70
2022-08-21T07:51:28.630Z,19.80
2022-08-21T07:53:58.001Z,19.80
2022-08-21T07:56:24.772Z,19.90
2022-08-21T07:58:51.595Z,20.00
2022-08-21T08:01:19.207Z,20.10
2022-08-21T08:03:46.283Z,20.20
2022-08-21T08:06:17.666Z,20.40
2022-08-21T08:08:44.338Z,20.50
2022-08-21T08:11:11.905Z,20.60
2022-08-21T08:13:43.570Z,20.70
2022-08-21T08:16:10.535Z,21.00
2022-08-21T08:18:37.514Z,21.10
2022-08-21T08:21:04.820Z,21.10
2022-08-21T08:23:33.041Z,21.10
2022-08-21T08:26:00.099Z,21.40
2022-08-21T08:28:28.069Z,21.70
2022-08-21T08:30:54.803Z,22.00
2022-08-21T08:33:22.250Z,22.30
2022-08-21T08:35:50.486Z,22.50
2022-08-21T08:38:21.476Z,22.60
2022-08-21T08:44:05.115Z,22.60
2022-08-21T08:46:48.964Z,23.00
2022-08-21T08:49:21.841Z,23.00
2022-08-21T08:51:58.713Z,23.20
2022-08-21T08:57:38.291Z,23.80
2022-08-21T09:00:08.147Z,23.90
2022-08-21T09:02:35.230Z,24.10
2022-08-21T09:05:02.490Z,24.00
2022-08-21T09:07:57.391Z,24.00
2022-08-21T09:13:39.329Z,24.80
2022-08-21T09:16:24.996Z,24.90
2022-08-21T09:19:16.524Z,24.80
2022-08-21T09:22:10.803Z,25.30
2022-08-21T09:25:08.986Z,25.30
2022-08-21T09:27:37.761Z,25.60
2022-08-21T09:30:07.574Z,25.90
2022-08-21T09:32:37.708Z,26.20
2022-08-21T09:38:26.775Z,27.30
2022-08-21T09:41:01.100Z,27.50
2022-08-21T09:43:28.551Z,27.20
2022-08-21T09:46:11.286Z,27.40
2022-08-21T09:51:39.768Z,27.60
2022-08-21T09:54:06.509Z,28.20
2022-08-21T09:59:50.088Z,29.30
2022-08-21T10:02:30.299Z,29.60
2022-08-21T10:05:12.213Z,29.50
2022-08-21T10:07:39.773Z,29.60
2022-08-21T10:10:14.648Z,28.90
2022-08-21T10:16:37.592Z,29.00
2022-08-21T10:19:41.803Z,29.40
2022-08-21T10:22:20.826Z,29.30
2022-08-21T10:25:06.203Z,29.70
2022-08-21T10:27:36.322Z,30.40
2022-08-21T10:30:09.489Z,31.30
2022-08-21T10:35:58.019Z,31.30
2022-08-21T10:38:52.789Z,31.30
2022-08-21T10:44:38.998Z,29.60
2022-08-21T10:47:12.904Z,29.90
2022-08-21T10:49:58.392Z,30.50
2022-08-21T10:56:11.606Z,30.60
2022-08-21T10:58:47.487Z,30.90
2022-08-21T11:01:47.517Z,30.80
2022-08-21T11:04:49.463Z,31.40
2022-08-21T11:10:58.006Z,31.50
2022-08-21T11:13:45.644Z,31.00
2022-08-21T11:16:34.500Z,31.30
2022-08-21T11:19:14.756Z,32.20
2022-08-21T11:21:48.564Z,33.80
2022-08-21T11:24:34.273Z,32.80
2022-08-21T11:30:17.067Z,33.60
2022-08-21T11:32:52.842Z,34.00
2022-08-21T11:38:41.918Z,33.70
2022-08-21T11:41:14.906Z,33.00
2022-08-21T11:43:47.690Z,32.30
2022-08-21T11:50:04.523Z,32.80
2022-08-21T11:52:48.881Z,32.10
2022-08-21T11:56:01.912Z,32.70
2022-08-21T11:58:44.204Z,32.40
2022-08-21T12:01:17.810Z,32.10
2022-08-21T12:03:56.315Z,32.20
2022-08-21T12:06:33.716Z,32.40
2022-08-21T12:09:09.665Z,33.50
2022-08-21T12:12:09.076Z,33.90
2022-08-21T12:14:50.760Z,34.90
2022-08-21T12:17:24.284Z,34.70
2022-08-21T12:20:03.900Z,35.30
2022-08-21T12:22:39.453Z,35.80
2022-08-21T12:28:10.198Z,34.50
2022-08-21T12:30:41.030Z,34.50
2022-08-21T12:33:27.608Z,34.00
2022-08-21T12:36:11.762Z,33.30
2022-08-21T12:38:55.323Z,33.80
2022-08-21T12:41:28.380Z,33.00
2022-08-21T12:44:15.816Z,33.90
2022-08-21T12:46:56.906Z,33.90
2022-08-21T12:49:33.057Z,33.80
2022-08-21T12:52:10.063Z,34.20
2022-08-21T12:54:43.451Z,33.80
2022-08-21T12:57:22.582Z,34.10
2022-08-21T12:59:54.348Z,33.80
2022-08-21T13:02:25.264Z,34.10
2022-08-21T13:04:54.054Z,34.10
2022-08-21T13:07:27.672Z,33.40
2022-08-21T13:09:59.154Z,32.70
2022-08-21T13:12:32.237Z,32.60
2022-08-21T13:15:04.283Z,32.10
2022-08-21T13:17:39.323Z,30.80
2022-08-21T13:20:31.348Z,30.50
2022-08-21T13:22:59.254Z,30.10
2022-08-21T13:25:29.975Z,30.00
2022-08-21T13:28:12.619Z,29.70
2022-08-21T13:30:46.829Z,29.80
2022-08-21T13:33:16.362Z,29.40
2022-08-21T13:35:58.075Z,29.30
2022-08-21T13:38:28.742Z,28.90
2022-08-21T13:41:16.835Z,28.80
2022-08-21T13:43:49.099Z,28.60
2022-08-21T13:46:17.686Z,28.60
2022-08-21T13:48:44.496Z,28.50
2022-08-21T13:51:11.790Z,28.50
2022-08-21T13:53:45.825Z,28.40
2022-08-21T13:56:31.914Z,28.20
2022-08-21T13:59:00.482Z,28.20
2022-08-21T14:01:34.363Z,27.90
2022-08-21T14:04:15.950Z,27.90
2022-08-21T14:06:42.804Z,28.10
2022-08-21T14:09:20.734Z,28.00
2022-08-21T14:11:47.425Z,27.80
2022-08-21T14:14:25.061Z,27.90
2022-08-21T14:16:58.830Z,27.70
2022-08-21T14:19:44.656Z,27.70
2022-08-21T14:22:30.102Z,27.70
2022-08-21T14:25:06.805Z,27.80
2022-08-21T14:27:35.856Z,27.60
2022-08-21T14:30:13.289Z,27.60
2022-08-21T14:32:44.898Z,27.40
2022-08-21T14:35:13.238Z,27.20
2022-08-21T14:37:43.696Z,27.40
2022-08-21T14:40:11.573Z,27.50
2022-08-21T14:42:43.724Z,27.50
2022-08-21T14:45:16.885Z,27.40
2022-08-21T14:47:44.602Z,27.40
2022-08-21T14:50:13.067Z,27.50
2022-08-21T14:52:41.183Z,27.50
2022-08-21T14:55:14.715Z,27.40
2022-08-21T14:57:44.504Z,27.50
2022-08-21T15:00:14.405Z,27.50
2022-08-21T15:02:41.154Z,27.50
2022-08-21T15:05:08.110Z,27.40
2022-08-21T15:07:34.861Z,27.40
2022-08-21T15:10:01.746Z,27.40
2022-08-21T15:12:28.646Z,27.40
2022-08-21T15:14:55.425Z,27.40
2022-08-21T15:17:22.355Z,27.40
2022-08-21T15:19:49.102Z,27.40
2022-08-21T15:22:18.955Z,27.40
2022-08-21T15:24:47.368Z,27.40
2022-08-21T15:27:17.085Z,27.40
2022-08-21T15:29:44.044Z,27.40
2022-08-21T15:32:18.854Z,27.50
2022-08-21T15:34:45.591Z,27.60
2022-08-21T15:37:12.355Z,27.80
2022-08-21T15:39:41.336Z,27.80
2022-08-21T15:42:11.283Z,27.70
2022-08-21T15:44:40.266Z,27.50
2022-08-21T15:47:10.904Z,27.60
2022-08-21T15:49:37.593Z,27.60
2022-08-21T15:52:04.322Z,27.40
2022-08-21T15:54:31.011Z,27.50
2022-08-21T15:56:57.757Z,27.60
2022-08-21T15:59:24.553Z,27.70
2022-08-21T16:01:52.071Z,27.60
2022-08-21T16:04:27.916Z,27.60
2022-08-21T16:06:59.878Z,27.60
2022-08-21T16:09:30.724Z,27.70
2022-08-21T16:11:57.712Z,27.60
2022-08-21T16:14:24.358Z,27.60
2022-08-21T16:16:51.672Z,27.60
2022-08-21T16:19:18.389Z,27.60
2022-08-21T16:21:45.439Z,27.70
2022-08-21T16:24:12.080Z,27.80
2022-08-21T16:26:39.003Z,27.90
2022-08-21T16:29:08.580Z,27.70
2022-08-21T16:31:35.483Z,27.60
2022-08-21T16:34:02.722Z,27.60
2022-08-21T16:36:29.775Z,27.40
2022-08-21T16:38:58.119Z,27.40
2022-08-21T16:41:34.702Z,27.30
2022-08-21T16:44:02.255Z,27.30
2022-08-21T16:46:32.899Z,27.30
2022-08-21T16:48:59.632Z,27.10
2022-08-21T16:51:26.377Z,27.10
2022-08-21T16:53:53.417Z,27.00
2022-08-21T16:56:20.246Z,27.00
2022-08-21T16:58:49.515Z,26.90
2022-08-21T17:01:18.306Z,26.70
2022-08-21T17:03:48.361Z,26.60
2022-08-21T17:06:16.281Z,26.50
2022-08-21T17:08:43.702Z,26.50
2022-08-21T17:11:36.993Z,26.30
2022-08-21T17:14:11.683Z,26.20
2022-08-21T17:16:40.693Z,26.10
2022-08-21T17:19:08.241Z,26.00
2022-08-21T17:21:35.106Z,25.90
2022-08-21T17:24:01.827Z,25.80
2022-08-21T17:26:28.552Z,25.70
2022-08-21T17:28:55.294Z,25.60
2022-08-21T17:31:22.144Z,25.60
2022-08-21T17:33:53.271Z,25.50
2022-08-21T17:36:25.898Z,25.40
2022-08-21T17:38:53.124Z,25.30
2022-08-21T17:41:20.899Z,25.30
2022-08-21T17:43:48.447Z,25.10
2022-08-21T17:46:19.913Z,25.10
2022-08-21T17:48:47.249Z,25.00
2022-08-21T17:51:15.329Z,24.90
2022-08-21T17:53:42.545Z,24.80
2022-08-21T17:56:09.667Z,24.80
2022-08-21T17:58:37.895Z,24.70
2022-08-21T18:01:08.356Z,24.60
2022-08-21T18:03:38.197Z,24.50
2022-08-21T18:06:05.775Z,24.50
2022-08-21T18:08:32.755Z,24.40
2022-08-21T18:11:00.089Z,24.40
2022-08-21T18:13:30.223Z,24.30
2022-08-21T18:16:00.158Z,24.20
2022-08-21T18:18:32.814Z,24.20
2022-08-21T18:20:59.863Z,24.10
2022-08-21T18:23:43.171Z,24.10
2022-08-21T18:26:11.383Z,24.00
2022-08-21T18:28:38.735Z,24.00
2022-08-21T18:31:09.258Z,23.90
2022-08-21T18:33:38.353Z,23.90
2022-08-21T18:36:05.702Z,23.90
2022-08-21T18:38:34.910Z,23.80
2022-08-21T18:41:02.769Z,23.80
2022-08-21T18:43:37.690Z,23.70
2022-08-21T18:46:05.354Z,23.60
2022-08-21T18:48:32.709Z,23.60
2022-08-21T18:50:59.781Z,23.60
2022-08-21T18:53:27.747Z,23.60
2022-08-21T18:55:57.109Z,23.50
2022-08-21T18:58:25.813Z,23.50
2022-08-21T19:00:55.349Z,23.50
2022-08-21T19:03:23.970Z,23.40
2022-08-21T19:08:44.108Z,23.40
2022-08-21T19:11:12.906Z,23.40
2022-08-21T19:13:40.366Z,23.30
2022-08-21T19:16:07.399Z,23.30
2022-08-21T19:18:39.982Z,23.30
2022-08-21T19:21:07.339Z,23.30
2022-08-21T19:23:35.204Z,23.30
2022-08-21T19:26:06.034Z,23.20
2022-08-21T19:28:40.053Z,23.20
2022-08-21T19:34:20.281Z,23.20
2022-08-21T19:36:47.470Z,23.10
2022-08-21T19:39:15.444Z,23.00
2022-08-21T19:41:46.682Z,23.00
2022-08-21T19:44:22.846Z,23.00
2022-08-21T19:46:51.332Z,23.00
2022-08-21T19:49:21.151Z,23.00
2022-08-21T19:51:49.053Z,22.90
2022-08-21T19:54:19.868Z,22.90
2022-08-21T19:56:47.427Z,22.90
2022-08-21T19:59:17.696Z,22.90
2022-08-21T20:01:44.531Z,22.80
2022-08-21T20:04:19.200Z,22.80
2022-08-21T20:06:47.105Z,22.80
2022-08-21T20:09:15.020Z,22.80
2022-08-21T20:11:48.733Z,22.80
2022-08-21T20:14:18.677Z,22.80
2022-08-21T20:16:47.252Z,22.80
2022-08-21T20:19:14.418Z,22.80
2022-08-21T20:21:43.897Z,22.70
2022-08-21T20:27:02.675Z,22.70
2022-08-21T20:29:38.990Z,22.60
2022-08-21T20:32:07.917Z,22.60
2022-08-21T20:34:39.764Z,22.60
2022-08-21T20:37:06.384Z,22.60
2022-08-21T20:39:36.410Z,22.50
2022-08-21T20:42:05.105Z,22.60
2022-08-21T20:44:34.371Z,22.60
2022-08-21T20:49:56.198Z,22.60
2022-08-21T20:52:26.783Z,22.60
2022-08-21T20:55:03.006Z,22.50
2022-08-21T20:57:38.248Z,22.60
2022-08-21T21:00:14.949Z,22.60
2022-08-21T21:02:47.416Z,22.60
2022-08-21T21:05:28.073Z,22.70
2022-08-21T21:08:00.646Z,22.60
2022-08-21T21:10:41.965Z,22.50
2022-08-21T21:13:24.535Z,22.50
2022-08-21T21:15:55.374Z,22.40
2022-08-21T21:18:57.996Z,22.40
2022-08-21T21:21:33.582Z,22.30
2022-08-21T21:24:11.069Z,22.30
2022-08-21T21:26:48.636Z,22.20
2022-08-21T21:29:27.387Z,22.20
2022-08-21T21:31:57.320Z,22.10
2022-08-21T21:34:26.748Z,22.00
2022-08-21T21:37:04.521Z,22.00
2022-08-21T21:39:47.188Z,21.90
2022-08-21T21:42:50.761Z,21.80
2022-08-21T21:45:54.843Z,21.80
2022-08-21T21:48:49.567Z,21.80
2022-08-21T21:51:19.596Z,21.70
2022-08-21T21:54:14.689Z,21.70
2022-08-21T21:57:24.189Z,21.60
2022-08-21T22:00:11.350Z,21.60
2022-08-21T22:02:42.724Z,21.50
2022-08-21T22:05:52.024Z,21.40
2022-08-21T22:08:30.061Z,21.40
2022-08-21T22:11:24.171Z,21.40
2022-08-21T22:14:15.022Z,21.30
2022-08-21T22:16:45.353Z,21.30
2022-08-21T22:19:20.686Z,21.30
2022-08-21T22:21:53.659Z,21.30
2022-08-21T22:24:27.687Z,21.20
2022-08-21T22:27:01.893Z,21.20
2022-08-21T22:29:49.670Z,21.20
2022-08-21T22:32:45.818Z,21.20
2022-08-21T22:35:18.556Z,21.20
2022-08-21T22:37:56.894Z,21.10
2022-08-21T22:40:32.401Z,21.10
2022-08-21T22:43:09.494Z,21.10
2022-08-21T22:46:04.040Z,21.00
2022-08-21T22:48:36.877Z,21.10
2022-08-21T22:51:07.492Z,21.00
2022-08-21T22:53:37.724Z,21.00
2022-08-21T22:56:06.609Z,21.00
2022-08-21T22:58:55.003Z,21.00
2022-08-21T23:01:22.628Z,20.90
2022-08-21T23:03:53.259Z,20.90
2022-08-21T23:06:25.792Z,20.90
2022-08-21T23:08:54.207Z,20.90
2022-08-21T23:11:43.191Z,20.90
2022-08-21T23:14:14.236Z,20.90
2022-08-21T23:16:52.226Z,20.90
2022-08-21T23:19:44.497Z,20.90
2022-08-21T23:22:40.794Z,20.90
2022-08-21T23:25:45.766Z,20.90
2022-08-21T23:28:41.764Z,20.80
2022-08-21T23:31:15.806Z,20.80
2022-08-21T23:33:43.129Z,20.70
2022-08-21T23:36:50.439Z,20.80
2022-08-21T23:39:36.005Z,20.70
2022-08-21T23:42:26.028Z,20.70
2022-08-21T23:45:17.735Z,20.70
2022-08-21T23:48:00.696Z,20.60
2022-08-21T23:50:41.396Z,20.70
2022-08-21T23:53:21.418Z,20.60
2022-08-21T23:56:16.051Z,20.60
2022-08-21T23:59:02.550Z,20.70
